Time;durP1;ratioP1;P1;durP2;ratioP2;P2;SDS_P1;SDS_P2;PMS_P1;PMS_P2;Temp;Humidity;BMP_temperature;BMP_pressure;BME280_temperature;BME280_humidity;BME280_pressure;Samples;Min_cycle;Max_cycle;Signal;HPM_P1;HPM_P2
2022/02/13 00:00:51;;;;;;;15.13;8.38;;;-0.70;99.90;;;;;;4950761;29;20031;-74
2022/02/13 00:03:16;;;;;;;16.38;7.70;;;-0.80;99.90;;;;;;4933958;28;20380;-74
2022/02/13 00:05:42;;;;;;;14.60;8.15;;;-0.70;99.90;;;;;;4950882;29;20514;-75
2022/02/13 00:08:08;;;;;;;15.30;8.52;;;-0.90;99.90;;;;;;4950524;29;20031;-74
2022/02/13 00:10:33;;;;;;;15.80;7.45;;;-0.90;99.90;;;;;;4949865;29;20088;-75
2022/02/13 00:12:59;;;;;;;12.70;7.55;;;-0.90;99.90;;;;;;4950778;29;20035;-75
2022/02/13 00:15:25;;;;;;;12.95;7.55;;;-0.70;99.90;;;;;;4933643;29;20039;-75
2022/02/13 00:17:50;;;;;;;14.10;7.53;;;-0.70;99.90;;;;;;4950658;29;20067;-75
2022/02/13 00:20:16;;;;;;;11.77;7.25;;;-0.80;99.90;;;;;;4949663;29;20030;-75
2022/02/13 00:22:41;;;;;;;12.95;7.82;;;-0.80;99.90;;;;;;4950381;29;20036;-75
2022/02/13 00:25:07;;;;;;;12.00;7.07;;;-0.90;99.90;;;;;;4950491;29;20039;-75
2022/02/13 00:27:33;;;;;;;14.85;7.00;;;-0.90;99.90;;;;;;4950137;29;20038;-75
2022/02/13 00:29:59;;;;;;;12.32;6.95;;;-0.90;99.90;;;;;;4932452;28;20415;-75
2022/02/13 00:32:26;;;;;;;10.82;6.53;;;-0.90;99.90;;;;;;4950400;29;20031;-75
2022/02/13 00:34:52;;;;;;;16.63;7.07;;;-1.00;99.90;;;;;;4950722;28;20031;-75
2022/02/13 00:37:17;;;;;;;15.60;8.05;;;-1.10;99.90;;;;;;4969871;29;20038;-75
2022/02/13 00:39:43;;;;;;;15.13;7.28;;;-1.10;99.90;;;;;;4977291;29;20027;-75
2022/02/13 00:42:09;;;;;;;13.15;8.43;;;-1.10;99.90;;;;;;4963025;29;20062;-75
2022/02/13 00:44:35;;;;;;;14.35;7.70;;;-1.20;99.90;;;;;;4954341;28;20062;-75
2022/02/13 00:47:04;;;;;;;11.85;7.15;;;-1.40;99.90;;;;;;4954072;29;20121;-75
2022/02/13 00:49:29;;;;;;;13.88;8.05;;;-1.30;99.90;;;;;;4952659;29;20035;-75
2022/02/13 00:51:55;;;;;;;12.68;7.65;;;-1.30;99.90;;;;;;4936333;28;20038;-75
2022/02/13 00:54:21;;;;;;;16.10;7.75;;;-1.40;99.90;;;;;;4936158;28;20028;-75
2022/02/13 00:56:47;;;;;;;16.10;7.65;;;-1.30;99.90;;;;;;4953541;29;20059;-75
2022/02/13 00:59:12;;;;;;;14.18;8.13;;;-1.50;99.90;;;;;;4952605;29;20476;-75
2022/02/13 01:01:38;;;;;;;13.70;7.35;;;-1.50;99.90;;;;;;4936347;29;20031;-75
2022/02/13 01:04:04;;;;;;;13.10;7.57;;;-1.40;99.90;;;;;;4953488;29;20085;-75
2022/02/13 01:06:30;;;;;;;14.45;7.95;;;-1.80;99.90;;;;;;4953231;29;20046;-75
2022/02/13 01:08:56;;;;;;;15.73;7.85;;;-1.90;99.90;;;;;;4952088;29;20446;-75
2022/02/13 01:11:21;;;;;;;12.80;7.32;;;-1.00;99.90;;;;;;4935779;29;20114;-75
2022/02/13 01:13:48;;;;;;;13.63;7.63;;;-1.90;99.90;;;;;;4936145;29;20146;-75
2022/02/13 01:16:18;;;;;;;15.15;7.97;;;-2.10;99.90;;;;;;4953064;29;20024;-75
2022/02/13 01:18:44;;;;;;;13.43;7.72;;;-1.20;99.90;;;;;;4934380;28;20491;-75
2022/02/13 01:21:12;;;;;;;16.73;8.15;;;-2.20;99.90;;;;;;4953010;29;20089;-75
2022/02/13 01:23:42;;;;;;;15.98;7.53;;;-2.30;99.90;;;;;;4952825;29;20047;-75
2022/02/13 01:26:08;;;;;;;13.95;7.07;;;-2.30;99.90;;;;;;4953037;29;20487;-74
2022/02/13 01:28:34;;;;;;;12.50;7.82;;;-2.40;99.90;;;;;;4951986;29;20414;-75
2022/02/13 01:31:02;;;;;;;15.38;7.43;;;-2.40;99.90;;;;;;4952964;28;20032;-75
2022/02/13 01:33:30;;;;;;;16.08;9.07;;;-2.60;99.90;;;;;;4952844;29;20032;-74
2022/02/13 01:35:57;;;;;;;21.08;9.77;;;-2.40;99.90;;;;;;4935765;28;20031;-74
2022/02/13 01:38:23;;;;;;;15.25;7.60;;;-2.50;99.90;;;;;;4952059;28;20024;-75
2022/02/13 01:40:49;;;;;;;14.38;7.07;;;-2.60;99.90;;;;;;4952669;28;20035;-74
2022/02/13 01:43:14;;;;;;;17.13;8.27;;;-2.70;99.90;;;;;;4952971;29;20027;-74
2022/02/13 01:45:40;;;;;;;14.27;8.00;;;-2.70;99.90;;;;;;4952606;29;20036;-74
2022/02/13 01:48:08;;;;;;;15.05;7.60;;;-2.30;99.90;;;;;;4952094;28;20035;-75
2022/02/13 01:50:38;;;;;;;17.30;7.28;;;-2.10;99.90;;;;;;4951865;29;20078;-75
2022/02/13 01:53:04;;;;;;;14.88;7.05;;;-2.00;99.90;;;;;;4952452;28;20102;-74
2022/02/13 01:55:30;;;;;;;12.38;7.38;;;-1.80;99.90;;;;;;4952626;29;20030;-74
2022/02/13 01:57:57;;;;;;;13.40;7.38;;;-1.70;99.90;;;;;;4952489;29;20031;-75
2022/02/13 02:00:26;;;;;;;12.18;7.75;;;-1.70;99.90;;;;;;4934609;29;20039;-75
2022/02/13 02:02:52;;;;;;;11.93;7.07;;;-1.70;99.90;;;;;;4952547;28;20369;-74
2022/02/13 02:05:18;;;;;;;12.93;6.47;;;-1.60;99.90;;;;;;4952654;28;20450;-75
2022/02/13 02:07:44;;;;;;;11.20;6.85;;;-1.50;99.90;;;;;;4952337;28;20764;-75
2022/02/13 02:10:10;;;;;;;11.45;5.90;;;-1.50;99.90;;;;;;4951625;29;20070;-75
2022/02/13 02:12:37;;;;;;;9.93;6.07;;;-1.50;99.90;;;;;;4952394;29;20106;-75
2022/02/13 02:15:05;;;;;;;10.15;6.13;;;-1.50;99.90;;;;;;4952431;29;20032;-74
2022/02/13 02:17:30;;;;;;;14.43;6.82;;;-1.50;99.90;;;;;;4951929;28;20039;-74
2022/02/13 02:19:56;;;;;;;12.82;6.97;;;-1.60;99.90;;;;;;4951236;29;20568;-74
2022/02/13 02:22:22;;;;;;;10.38;6.07;;;-1.70;99.90;;;;;;4952391;28;20028;-75
2022/02/13 02:24:47;;;;;;;11.55;6.38;;;-2.00;99.90;;;;;;4951957;29;20030;-75
2022/02/13 02:27:14;;;;;;;11.77;6.65;;;-1.80;99.90;;;;;;4952025;29;20039;-75
2022/02/13 02:29:39;;;;;;;15.30;6.30;;;-2.00;99.90;;;;;;4951142;28;20038;-75
2022/02/13 02:32:05;;;;;;;12.13;6.15;;;-2.10;99.90;;;;;;4951941;29;20028;-75
2022/02/13 02:34:31;;;;;;;12.23;7.05;;;-2.00;99.90;;;;;;4952001;29;20032;-75
2022/02/13 02:36:57;;;;;;;15.60;7.40;;;-2.10;99.90;;;;;;4951956;28;20554;-75
2022/02/13 02:39:23;;;;;;;12.27;6.97;;;-2.20;99.90;;;;;;4950874;29;20483;-75
2022/02/13 02:41:48;;;;;;;16.90;7.60;;;-1.60;99.90;;;;;;4951745;29;20038;-75
2022/02/13 02:44:14;;;;;;;12.48;6.78;;;-2.40;99.90;;;;;;4952058;28;20024;-75
2022/02/13 02:46:40;;;;;;;15.68;7.47;;;-2.40;99.90;;;;;;4951839;29;20054;-75
2022/02/13 02:49:05;;;;;;;14.07;7.07;;;-2.30;99.90;;;;;;4950922;29;20039;-75
2022/02/13 02:51:31;;;;;;;12.90;7.88;;;-2.40;99.90;;;;;;4951816;29;20091;-75
2022/02/13 02:53:57;;;;;;;12.18;6.57;;;-2.30;99.90;;;;;;4951494;29;20539;-75
2022/02/13 02:56:22;;;;;;;12.60;7.18;;;-2.20;99.90;;;;;;4951476;29;20031;-75
2022/02/13 02:58:48;;;;;;;14.75;7.43;;;-2.30;99.90;;;;;;4949699;28;20038;-75
2022/02/13 03:01:13;;;;;;;11.23;6.93;;;-2.40;99.90;;;;;;4934585;29;20062;-75
2022/02/13 03:03:39;;;;;;;12.90;7.65;;;-2.50;99.90;;;;;;4951598;29;20059;-75
2022/02/13 03:06:05;;;;;;;13.55;7.43;;;-2.40;99.90;;;;;;4951660;29;20085;-75
2022/02/13 03:08:31;;;;;;;12.85;7.10;;;-2.60;99.90;;;;;;4933644;29;20035;-75
2022/02/13 03:10:56;;;;;;;10.25;6.97;;;-2.40;99.90;;;;;;4951269;29;20454;-75
2022/02/13 03:13:22;;;;;;;11.70;7.15;;;-2.30;99.90;;;;;;4934410;29;20035;-75
2022/02/13 03:15:49;;;;;;;10.88;6.38;;;-2.20;99.90;;;;;;4951423;29;20031;-75
2022/02/13 03:18:19;;;;;;;14.63;6.90;;;-2.20;99.90;;;;;;4933970;29;20376;-75
2022/02/13 03:20:49;;;;;;;12.55;7.10;;;-2.20;99.90;;;;;;4950864;29;20031;-75
2022/02/13 03:23:16;;;;;;;13.52;6.15;;;-2.30;99.90;;;;;;4951189;29;20099;-75
2022/02/13 03:25:42;;;;;;;10.77;6.30;;;-2.30;99.90;;;;;;4951474;28;20073;-75
2022/02/13 03:28:08;;;;;;;11.55;6.78;;;-2.10;99.90;;;;;;4951185;28;20036;-75
2022/02/13 03:30:35;;;;;;;10.90;6.30;;;-2.10;99.90;;;;;;4952659;29;20031;-75
2022/02/13 03:33:02;;;;;;;12.18;7.07;;;-2.20;99.90;;;;;;4952534;28;20035;-74
2022/02/13 03:35:28;;;;;;;10.82;6.28;;;-2.10;99.90;;;;;;4951222;29;20035;-75
2022/02/13 03:37:54;;;;;;;13.38;7.00;;;-2.00;99.90;;;;;;4933958;29;20061;-75
2022/02/13 03:40:20;;;;;;;12.00;6.90;;;-2.10;99.90;;;;;;4950064;29;20023;-75
2022/02/13 03:42:46;;;;;;;11.15;6.43;;;-2.00;99.90;;;;;;4951012;29;20034;-75
2022/02/13 03:45:12;;;;;;;12.45;6.05;;;-2.10;99.90;;;;;;4950965;29;20115;-75
2022/02/13 03:47:39;;;;;;;10.50;6.30;;;-2.20;99.90;;;;;;4950699;29;20031;-75
2022/02/13 03:50:06;;;;;;;10.35;6.00;;;-2.30;99.90;;;;;;4933257;29;20031;-75
2022/02/13 03:52:31;;;;;;;12.13;6.30;;;-2.40;99.90;;;;;;4933909;28;20047;-75
2022/02/13 03:54:59;;;;;;;12.02;6.43;;;-2.30;99.90;;;;;;4950595;29;20085;-75
2022/02/13 03:57:26;;;;;;;12.10;7.07;;;-2.20;99.90;;;;;;4951037;29;20031;-75
2022/02/13 03:59:52;;;;;;;13.93;6.50;;;-2.30;99.90;;;;;;4950774;29;20023;-75
2022/02/13 04:02:18;;;;;;;11.07;7.43;;;-2.20;99.90;;;;;;4931752;29;20043;-75
2022/02/13 04:04:43;;;;;;;12.68;6.55;;;-0.50;99.90;;;;;;4931804;29;20028;-75
2022/02/13 04:07:09;;;;;;;13.43;6.88;;;-2.40;99.90;;;;;;4914669;29;20036;-75
2022/02/13 04:09:35;;;;;;;13.85;7.30;;;-2.30;99.90;;;;;;4938830;28;20035;-75
2022/02/13 04:12:01;;;;;;;12.93;7.63;;;-2.30;99.90;;;;;;4937119;29;20032;-75
2022/02/13 04:14:26;;;;;;;16.75;7.78;;;-2.30;99.90;;;;;;4954040;29;20110;-75
2022/02/13 04:16:52;;;;;;;11.73;6.97;;;-2.20;99.90;;;;;;4954162;29;20062;-75
2022/02/13 04:19:18;;;;;;;15.32;7.40;;;-2.10;99.90;;;;;;4953553;29;20619;-75
2022/02/13 04:21:43;;;;;;;13.95;7.55;;;-1.90;99.90;;;;;;4961534;29;20038;-75
2022/02/13 04:24:09;;;;;;;12.95;7.55;;;-1.90;99.90;;;;;;4977789;29;20094;-76
2022/02/13 04:26:34;;;;;;;13.23;7.20;;;-1.80;99.90;;;;;;4962569;29;20387;-75
2022/02/13 04:29:00;;;;;;;11.52;6.55;;;-1.70;99.90;;;;;;4952998;29;20066;-75
2022/02/13 04:31:25;;;;;;;11.38;6.45;;;-1.50;99.90;;;;;;4953698;29;20034;-75
2022/02/13 04:33:51;;;;;;;11.05;6.65;;;-1.60;99.90;;;;;;4953961;29;20514;-75
2022/02/13 04:36:17;;;;;;;10.55;6.90;;;0.00;99.90;;;;;;4953193;29;20458;-75
2022/02/13 04:38:43;;;;;;;11.15;6.68;;;-0.60;99.90;;;;;;4952731;29;20044;-75
2022/02/13 04:41:08;;;;;;;13.40;7.38;;;-1.20;99.90;;;;;;4953558;29;20039;-75
2022/02/13 04:43:34;;;;;;;10.65;6.25;;;-1.40;99.90;;;;;;4953590;29;20034;-75
2022/02/13 04:45:59;;;;;;;11.52;6.93;;;-1.40;99.90;;;;;;4953703;29;20027;-75
2022/02/13 04:48:26;;;;;;;12.88;7.13;;;-1.40;99.90;;;;;;4953134;29;20492;-75
2022/02/13 04:50:51;;;;;;;12.02;6.25;;;-1.50;99.90;;;;;;4936466;28;20035;-75
2022/02/13 04:53:17;;;;;;;14.27;6.28;;;-1.40;99.90;;;;;;4953328;29;20542;-75
2022/02/13 04:55:42;;;;;;;10.73;6.72;;;-1.60;99.90;;;;;;4953565;29;20036;-75
2022/02/13 04:58:08;;;;;;;12.13;6.35;;;-1.70;99.90;;;;;;4953146;29;20059;-75
2022/02/13 05:00:34;;;;;;;12.00;6.75;;;-2.00;99.90;;;;;;4936170;28;20035;-74
2022/02/13 05:02:59;;;;;;;12.07;6.50;;;-1.80;99.90;;;;;;4953927;29;20035;-75
2022/02/13 05:05:25;;;;;;;10.98;6.28;;;-1.80;99.90;;;;;;4953553;29;20058;-74
2022/02/13 05:07:50;;;;;;;12.07;6.43;;;-1.70;99.90;;;;;;4953494;29;20031;-75
2022/02/13 05:10:16;;;;;;;9.65;6.07;;;-1.80;99.90;;;;;;4952400;29;20415;-75
2022/02/13 05:12:42;;;;;;;15.07;6.63;;;-1.60;99.90;;;;;;4935742;28;20034;-75
2022/02/13 05:15:08;;;;;;;11.48;6.55;;;-1.60;99.90;;;;;;4953396;29;20043;-75
2022/02/13 05:17:38;;;;;;;13.25;6.47;;;-1.80;99.90;;;;;;4936119;28;20033;-75
2022/02/13 05:20:07;;;;;;;12.48;6.30;;;-1.70;99.90;;;;;;4952358;29;20034;-75
2022/02/13 05:22:33;;;;;;;10.15;5.88;;;-1.90;99.90;;;;;;4952177;28;20114;-75
2022/02/13 05:24:59;;;;;;;13.30;6.78;;;-1.80;99.90;;;;;;4952885;29;20122;-75
2022/02/13 05:27:24;;;;;;;10.43;6.45;;;-2.00;99.90;;;;;;4952695;29;20393;-75
2022/02/13 05:29:50;;;;;;;12.02;6.13;;;-1.90;99.90;;;;;;4952512;28;20058;-75
2022/02/13 05:32:16;;;;;;;11.80;7.50;;;-2.00;99.90;;;;;;4935896;29;20043;-75
2022/02/13 05:34:41;;;;;;;13.73;6.78;;;-1.90;99.90;;;;;;4952961;29;20032;-75
2022/02/13 05:37:07;;;;;;;13.02;6.50;;;-2.00;99.90;;;;;;4952714;29;20145;-75
2022/02/13 05:39:33;;;;;;;12.20;6.72;;;-2.00;99.90;;;;;;4951832;29;20035;-75
2022/02/13 05:41:59;;;;;;;14.15;6.95;;;-2.10;99.90;;;;;;4935619;28;20035;-75
2022/02/13 05:44:25;;;;;;;11.70;7.05;;;-2.00;99.90;;;;;;4953029;28;20032;-75
2022/02/13 05:46:51;;;;;;;11.48;7.07;;;-2.10;99.90;;;;;;4952776;29;20031;-75
2022/02/13 05:49:16;;;;;;;14.07;6.50;;;-2.10;99.90;;;;;;4952257;29;20099;-75
2022/02/13 05:51:43;;;;;;;12.57;6.65;;;-2.10;99.90;;;;;;4952516;29;20039;-75
2022/02/13 05:54:09;;;;;;;13.55;6.65;;;-2.10;99.90;;;;;;4952433;29;20055;-75
2022/02/13 05:56:34;;;;;;;10.98;6.63;;;-2.10;99.90;;;;;;4952534;29;20062;-75
2022/02/13 05:59:00;;;;;;;14.05;7.45;;;-2.10;99.90;;;;;;4951681;29;20039;-75
2022/02/13 06:01:27;;;;;;;15.93;7.70;;;-2.10;99.90;;;;;;4952630;28;20123;-75
2022/02/13 06:03:52;;;;;;;11.73;7.68;;;-2.00;99.90;;;;;;4952503;29;20029;-75
2022/02/13 06:06:18;;;;;;;15.35;8.80;;;-2.10;99.90;;;;;;4952313;29;20106;-75
2022/02/13 06:08:44;;;;;;;14.10;8.05;;;-2.10;99.90;;;;;;4951610;29;20031;-75
2022/02/13 06:11:12;;;;;;;12.10;6.90;;;-2.20;99.90;;;;;;4952074;29;20564;-75
2022/02/13 06:13:38;;;;;;;17.73;7.68;;;-2.10;99.90;;;;;;4952454;29;20110;-75
2022/02/13 06:16:06;;;;;;;12.93;7.28;;;-2.10;99.90;;;;;;4952185;29;20027;-75
2022/02/13 06:18:35;;;;;;;15.30;7.90;;;-2.10;99.90;;;;;;4951628;29;20042;-75
2022/02/13 06:21:01;;;;;;;13.68;7.32;;;-2.10;99.90;;;;;;4952061;29;20194;-75
2022/02/13 06:23:27;;;;;;;14.73;7.85;;;-2.00;99.90;;;;;;4952035;29;20510;-75
2022/02/13 06:25:54;;;;;;;15.07;8.20;;;-2.00;99.90;;;;;;4952124;29;20031;-75
2022/02/13 06:28:20;;;;;;;15.75;8.43;;;-2.00;99.90;;;;;;4951815;29;20027;-75
2022/02/13 06:30:45;;;;;;;14.88;7.82;;;-2.10;99.90;;;;;;4951654;28;20118;-75
2022/02/13 06:33:11;;;;;;;14.27;7.78;;;-2.10;99.90;;;;;;4952155;29;20494;-75
2022/02/13 06:35:36;;;;;;;11.40;6.97;;;-2.00;99.90;;;;;;4934853;29;20438;-75
2022/02/13 06:38:03;;;;;;;16.35;7.88;;;-1.40;99.90;;;;;;4951732;29;20110;-75
2022/02/13 06:40:29;;;;;;;13.02;7.65;;;-2.20;99.90;;;;;;4951017;29;20023;-75
2022/02/13 06:42:55;;;;;;;19.30;7.85;;;-2.10;99.90;;;;;;4952031;28;20487;-75
2022/02/13 06:45:21;;;;;;;12.60;7.85;;;-2.10;99.90;;;;;;4951901;29;20123;-76
2022/02/13 06:47:46;;;;;;;16.25;7.72;;;-2.10;99.90;;;;;;4952057;29;20036;-75
2022/02/13 06:50:12;;;;;;;19.10;9.05;;;-2.10;99.90;;;;;;4951064;29;20105;-75
2022/02/13 06:52:38;;;;;;;12.80;8.32;;;-2.10;99.90;;;;;;4951799;29;20502;-75
2022/02/13 06:55:04;;;;;;;11.68;7.28;;;-2.20;99.90;;;;;;4951467;29;20028;-76
2022/02/13 06:57:31;;;;;;;14.85;8.10;;;-2.00;99.90;;;;;;4952029;28;20038;-76
2022/02/13 06:59:56;;;;;;;14.90;7.43;;;-2.10;99.90;;;;;;4950923;29;20030;-76
2022/02/13 07:02:22;;;;;;;17.88;8.35;;;-2.00;99.90;;;;;;4951801;29;20023;-76
2022/02/13 07:04:47;;;;;;;14.02;9.15;;;-2.10;99.90;;;;;;4951909;29;20050;-76
2022/02/13 07:07:13;;;;;;;13.98;8.60;;;-2.20;99.90;;;;;;4934056;29;20110;-76
2022/02/13 07:09:39;;;;;;;17.20;8.55;;;-2.10;99.90;;;;;;4933779;29;20392;-76
2022/02/13 07:12:08;;;;;;;12.88;7.93;;;-2.20;99.90;;;;;;4934355;29;20035;-76
2022/02/13 07:14:35;;;;;;;14.35;8.05;;;-2.20;99.90;;;;;;4951459;29;20077;-76
2022/02/13 07:17:01;;;;;;;12.88;8.20;;;-2.10;99.90;;;;;;4951410;29;20037;-76
2022/02/13 07:19:27;;;;;;;15.60;8.80;;;-0.90;99.90;;;;;;4950381;29;20020;-76
2022/02/13 07:21:53;;;;;;;14.38;8.77;;;-2.00;99.90;;;;;;4950104;29;20032;-75
2022/02/13 07:24:19;;;;;;;14.07;8.65;;;-2.00;99.90;;;;;;4951358;29;20476;-75
2022/02/13 07:26:44;;;;;;;25.95;11.80;;;-1.80;99.90;;;;;;4951844;29;20027;-75
2022/02/13 07:29:10;;;;;;;38.38;17.05;;;-1.80;99.90;;;;;;4950102;28;20049;-76
2022/02/13 07:31:36;;;;;;;20.92;11.10;;;-0.70;99.90;;;;;;4951670;28;20089;-76
2022/02/13 07:34:06;;;;;;;15.77;9.65;;;-1.60;99.90;;;;;;4951118;29;20031;-75
2022/02/13 07:36:33;;;;;;;17.10;10.10;;;-1.70;99.90;;;;;;4950207;29;20027;-76
2022/02/13 07:38:59;;;;;;;13.02;8.75;;;-1.50;99.90;;;;;;4951041;28;20031;-75
2022/02/13 07:41:26;;;;;;;14.98;9.02;;;-1.40;99.90;;;;;;4951825;28;20035;-76
2022/02/13 07:43:53;;;;;;;15.85;10.15;;;-1.40;99.90;;;;;;4951088;28;20030;-76
2022/02/13 07:46:19;;;;;;;14.32;8.88;;;-1.40;99.90;;;;;;4951145;29;20027;-76
2022/02/13 07:48:45;;;;;;;16.80;9.57;;;-1.30;99.90;;;;;;4950817;28;20118;-77
2022/02/13 07:51:12;;;;;;;16.35;10.57;;;-1.20;99.90;;;;;;4952772;28;20063;-77
2022/02/13 07:53:38;;;;;;;15.30;9.73;;;-1.20;99.90;;;;;;4935153;29;20137;-77
2022/02/13 07:56:06;;;;;;;15.05;8.85;;;-0.90;99.90;;;;;;4951126;29;20063;-76
2022/02/13 07:58:32;;;;;;;14.25;8.32;;;-0.90;99.90;;;;;;4950240;28;20024;-76
2022/02/13 08:01:06;;;;;;;13.38;8.88;;;-0.70;99.90;;;;;;4953331;28;20015;-75
2022/02/13 08:03:32;;;;;;;12.55;8.30;;;-0.70;99.90;;;;;;4959613;29;20042;-75
2022/02/13 08:05:57;;;;;;;14.60;8.70;;;-0.80;99.90;;;;;;4950869;28;20035;-76
2022/02/13 08:08:23;;;;;;;15.90;10.15;;;-0.50;99.90;;;;;;4920752;28;20093;-76
2022/02/13 08:10:49;;;;;;;17.17;8.45;;;-0.60;99.90;;;;;;4951039;28;20395;-76
2022/02/13 08:13:15;;;;;;;13.10;8.48;;;-0.50;99.90;;;;;;4951234;29;20488;-76
2022/02/13 08:15:42;;;;;;;13.85;8.52;;;-0.30;99.90;;;;;;4951041;29;20492;-76
2022/02/13 08:18:12;;;;;;;12.35;7.85;;;-0.10;99.90;;;;;;4950511;29;20089;-76
2022/02/13 08:20:39;;;;;;;14.52;8.18;;;-0.10;99.90;;;;;;4949936;29;20081;-76
2022/02/13 08:23:06;;;;;;;17.50;8.93;;;0.10;99.90;;;;;;4950684;29;20027;-75
2022/02/13 08:25:32;;;;;;;18.77;9.18;;;0.20;99.90;;;;;;4950505;29;20028;-74
2022/02/13 08:27:58;;;;;;;18.00;9.75;;;0.30;99.90;;;;;;4950473;29;20040;-75
2022/02/13 08:30:24;;;;;;;19.90;12.02;;;0.50;99.90;;;;;;4949566;29;20040;-76
2022/02/13 08:32:50;;;;;;;17.20;11.88;;;0.60;99.90;;;;;;4950416;29;20084;-75
2022/02/13 08:35:15;;;;;;;17.85;11.90;;;1.00;99.90;;;;;;4950489;29;20488;-77
2022/02/13 08:37:42;;;;;;;16.27;9.30;;;1.70;99.90;;;;;;4950366;28;20032;-75
2022/02/13 08:40:08;;;;;;;14.10;8.32;;;3.40;99.90;;;;;;4949508;29;20027;-76
2022/02/13 08:42:34;;;;;;;13.05;8.50;;;3.90;99.90;;;;;;4950756;29;20089;-76
2022/02/13 08:45:00;;;;;;;11.45;7.65;;;4.50;99.90;;;;;;4950396;29;20039;-76
2022/02/13 08:47:25;;;;;;;12.02;8.00;;;7.20;99.90;;;;;;4950017;29;20042;-76
2022/02/13 08:49:51;;;;;;;12.70;7.28;;;;;;;;;;4950255;29;20051;-77
2022/02/13 08:52:18;;;;;;;11.93;8.00;;;8.20;99.90;;;;;;4952138;28;20043;-76
2022/02/13 08:54:44;;;;;;;14.25;7.75;;;;;;;;;;4950545;29;20102;-76
2022/02/13 08:57:10;;;;;;;13.23;7.95;;;;;;;;;;4951659;28;20168;-76
2022/02/13 08:59:36;;;;;;;9.63;7.60;;;9.70;99.90;;;;;;4952667;28;20040;-77
2022/02/13 09:02:02;;;;;;;10.52;7.10;;;10.80;99.90;;;;;;4953147;29;20031;-76
2022/02/13 09:04:27;;;;;;;11.60;7.28;;;10.80;99.90;;;;;;4953611;28;20507;-76
2022/02/13 09:06:54;;;;;;;11.75;6.38;;;12.20;99.50;;;;;;4953408;29;20028;-76
2022/02/13 09:09:20;;;;;;;10.82;6.72;;;12.20;96.60;;;;;;4952616;29;20050;-76
2022/02/13 09:11:46;;;;;;;9.05;6.32;;;12.80;90.40;;;;;;4953480;29;20108;-76
2022/02/13 09:14:12;;;;;;;9.65;5.80;;;12.70;88.50;;;;;;4954494;29;20113;-76
2022/02/13 09:16:38;;;;;;;10.00;5.43;;;12.80;85.50;;;;;;4953264;29;20023;-76
2022/02/13 09:19:04;;;;;;;9.95;6.07;;;13.80;81.90;;;;;;4952602;29;20037;-74
2022/02/13 09:21:30;;;;;;;10.57;6.15;;;15.50;76.00;;;;;;4952905;29;20504;-74
2022/02/13 09:23:56;;;;;;;8.48;5.30;;;14.00;73.70;;;;;;4953244;29;20025;-76
2022/02/13 09:26:22;;;;;;;10.50;5.97;;;15.30;73.60;;;;;;4953009;28;20097;-76
2022/02/13 09:28:47;;;;;;;8.55;5.88;;;14.20;71.50;;;;;;4952209;29;20047;-76
2022/02/13 09:31:13;;;;;;;8.55;5.90;;;14.60;71.90;;;;;;4952541;29;20042;-76
2022/02/13 09:33:38;;;;;;;14.60;5.78;;;14.20;70.50;;;;;;4952992;29;20484;-77
2022/02/13 09:36:04;;;;;;;9.18;6.38;;;16.40;70.60;;;;;;4952739;29;20031;-76
2022/02/13 09:38:30;;;;;;;13.77;6.70;;;15.30;67.20;;;;;;4951872;29;20126;-76
2022/02/13 09:40:57;;;;;;;9.85;5.78;;;15.60;69.20;;;;;;4952828;29;20039;-74
2022/02/13 09:43:22;;;;;;;6.90;4.63;;;16.50;67.10;;;;;;4952927;29;20023;-76
2022/02/13 09:45:52;;;;;;;7.72;4.82;;;17.10;66.80;;;;;;4952848;28;20042;-76
2022/02/13 09:48:23;;;;;;;8.93;5.20;;;16.30;64.00;;;;;;4952472;29;20081;-76
2022/02/13 09:50:49;;;;;;;8.38;4.68;;;16.30;64.00;;;;;;4952651;29;20392;-76
2022/02/13 09:53:15;;;;;;;8.23;4.55;;;17.50;63.10;;;;;;4952615;28;20105;-76
2022/02/13 09:55:42;;;;;;;7.78;4.13;;;17.20;64.10;;;;;;4952691;28;20035;-73
2022/02/13 09:58:08;;;;;;;7.45;3.63;;;16.40;62.80;;;;;;4952889;29;20031;-76
2022/02/13 10:00:56;;;;;;;8.02;4.65;;;16.90;61.80;;;;;;4952391;29;20043;-75
2022/02/13 10:03:33;;;;;;;7.47;4.00;;;16.80;59.90;;;;;;4952768;29;20111;-76
2022/02/13 10:06:19;;;;;;;6.57;3.85;;;17.20;58.60;;;;;;4952773;28;20031;-76
2022/02/13 10:08:50;;;;;;;6.40;3.58;;;18.40;56.80;;;;;;4951180;29;20059;-75
2022/02/13 10:11:17;;;;;;;6.65;3.90;;;18.70;55.10;;;;;;4952287;28;20015;-76
2022/02/13 10:13:46;;;;;;;6.90;3.58;;;19.90;55.20;;;;;;4952464;29;20019;-76
2022/02/13 10:16:37;;;;;;;6.57;3.55;;;19.10;53.60;;;;;;4952470;28;20016;-76
2022/02/13 10:19:08;;;;;;;8.57;3.63;;;19.00;54.10;;;;;;4951390;28;20035;-75
2022/02/13 10:21:38;;;;;;;6.38;3.25;;;19.00;54.10;;;;;;4952362;29;20027;-74
2022/02/13 10:24:28;;;;;;;5.03;3.00;;;18.00;55.10;;;;;;4952192;29;20019;-75
2022/02/13 10:26:56;;;;;;;6.75;3.35;;;17.20;57.20;;;;;;4946904;29;20020;-75
2022/02/13 10:29:27;;;;;;;9.75;3.50;;;17.20;59.20;;;;;;4933890;28;20097;-75
2022/02/13 10:32:11;;;;;;;6.13;3.25;;;17.50;58.40;;;;;;4947877;29;20034;-75
2022/02/13 10:34:37;;;;;;;6.68;3.90;;;17.60;57.20;;;;;;4952248;29;20034;-76
2022/02/13 10:37:03;;;;;;;6.03;3.75;;;18.90;59.40;;;;;;4951973;29;20088;-75
2022/02/13 10:39:29;;;;;;;11.45;4.05;;;18.40;58.50;;;;;;4950715;29;20438;-75
2022/02/13 10:41:56;;;;;;;7.93;4.13;;;18.10;58.30;;;;;;4951996;29;20027;-76
2022/02/13 10:44:30;;;;;;;7.30;4.28;;;18.20;58.30;;;;;;4951985;29;20027;-76
2022/02/13 10:46:56;;;;;;;8.80;4.25;;;18.80;56.90;;;;;;4951938;28;20392;-76
2022/02/13 10:49:22;;;;;;;6.38;3.70;;;18.90;56.20;;;;;;4951166;29;20030;-76
2022/02/13 10:51:49;;;;;;;8.73;4.40;;;19.90;54.70;;;;;;4951527;29;20031;-76
2022/02/13 10:54:15;;;;;;;4.93;3.75;;;18.90;55.80;;;;;;4951969;28;20373;-76
2022/02/13 10:56:41;;;;;;;6.60;3.92;;;19.10;58.00;;;;;;4951906;28;20471;-75
2022/02/13 10:59:12;;;;;;;9.65;5.03;;;18.40;56.30;;;;;;4934149;28;20062;-76
2022/02/13 11:01:46;;;;;;;8.85;4.05;;;18.70;59.40;;;;;;4934466;29;20027;-76
2022/02/13 11:04:13;;;;;;;9.60;3.92;;;19.80;58.20;;;;;;4951657;29;20122;-76
2022/02/13 11:06:39;;;;;;;8.20;3.55;;;19.90;55.00;;;;;;4951295;29;20051;-76
2022/02/13 11:09:23;;;;;;;6.00;3.13;;;20.00;54.30;;;;;;4951277;29;20399;-76
2022/02/13 11:11:51;;;;;;;6.10;3.25;;;20.10;55.50;;;;;;4951309;29;20088;-76
2022/02/13 11:14:49;;;;;;;6.35;3.17;;;21.20;55.30;;;;;;4951726;29;20129;-76
2022/02/13 11:17:36;;;;;;;5.03;3.03;;;20.40;53.40;;;;;;4955390;28;20047;-78
2022/02/13 11:20:04;;;;;;;8.27;3.38;;;21.30;55.00;;;;;;4951745;28;20027;-77
2022/02/13 11:22:36;;;;;;;5.80;3.60;;;20.10;57.50;;;;;;4952810;29;20023;-77
2022/02/13 11:25:06;;;;;;;8.02;3.75;;;20.10;53.40;;;;;;4952547;28;20019;-77
2022/02/13 11:27:57;;;;;;;8.43;3.75;;;20.80;54.60;;;;;;4952917;29;20089;-77
2022/02/13 11:30:43;;;;;;;10.32;3.90;;;21.20;51.60;;;;;;4952631;29;20027;-78
2022/02/13 11:33:30;;;;;;;7.10;3.33;;;21.60;52.50;;;;;;4949276;29;20038;-76
2022/02/13 11:36:02;;;;;;;6.20;3.53;;;21.30;50.90;;;;;;4978569;28;20058;-78
2022/02/13 11:38:44;;;;;;;9.05;4.30;;;20.60;54.00;;;;;;4942187;29;20078;-78
2022/02/13 11:41:10;;;;;;;8.20;4.07;;;21.30;51.40;;;;;;4952499;29;20391;-75
2022/02/13 11:43:44;;;;;;;7.10;3.85;;;22.00;53.50;;;;;;4952085;29;20031;-78
2022/02/13 11:46:14;;;;;;;7.28;3.53;;;22.50;49.90;;;;;;4951599;29;20587;-74
2022/02/13 11:48:43;;;;;;;8.50;3.92;;;21.90;47.30;;;;;;4950650;29;20045;-77
2022/02/13 11:51:11;;;;;;;9.02;4.30;;;21.30;51.00;;;;;;4951007;28;20043;-76
2022/02/13 11:53:45;;;;;;;11.20;5.22;;;20.50;52.40;;;;;;4955751;28;20027;-78
2022/02/13 11:56:25;;;;;;;9.90;4.07;;;19.70;54.90;;;;;;4973504;23;20464;-77
2022/02/13 11:58:51;;;;;;;6.68;3.83;;;20.20;52.40;;;;;;4930150;28;20035;-77
2022/02/13 12:01:35;;;;;;;12.68;4.10;;;19.60;52.80;;;;;;4943980;28;20031;-78
2022/02/13 12:04:01;;;;;;;7.35;3.72;;;20.30;52.90;;;;;;4951115;29;20046;-77
2022/02/13 12:06:29;;;;;;;9.02;3.78;;;20.30;53.20;;;;;;4950414;28;20034;-78
2022/02/13 12:09:06;;;;;;;7.88;4.50;;;19.80;54.50;;;;;;4950148;29;20080;-78
2022/02/13 12:11:36;;;;;;;8.80;4.15;;;20.50;52.20;;;;;;4950791;29;20085;-77
2022/02/13 12:14:14;;;;;;;6.65;3.63;;;21.50;51.10;;;;;;4950838;29;20035;-78
2022/02/13 12:16:48;;;;;;;6.47;3.67;;;22.10;51.30;;;;;;4933105;28;20503;-77
2022/02/13 12:19:24;;;;;;;6.65;3.70;;;21.60;50.50;;;;;;4946508;29;20031;-77
2022/02/13 12:22:12;;;;;;;15.50;5.22;;;21.00;51.40;;;;;;4944538;28;20030;-76
2022/02/13 12:24:39;;;;;;;8.15;3.85;;;20.80;50.30;;;;;;4944698;29;20016;-76
2022/02/13 12:27:05;;;;;;;6.93;3.72;;;20.80;52.20;;;;;;4933033;29;20062;-77
2022/02/13 12:29:31;;;;;;;6.22;3.90;;;21.30;50.50;;;;;;4932153;29;20031;-78
2022/02/13 12:32:11;;;;;;;7.55;3.90;;;20.80;51.30;;;;;;4935507;28;20031;-78
2022/02/13 12:35:00;;;;;;;10.23;3.92;;;20.20;51.90;;;;;;4953484;29;20027;-78
2022/02/13 12:37:38;;;;;;;5.85;3.90;;;20.80;51.90;;;;;;4953213;28;20031;-78
2022/02/13 12:40:09;;;;;;;7.53;3.58;;;21.30;50.80;;;;;;4952526;29;20046;-77
2022/02/13 12:42:39;;;;;;;5.97;3.33;;;21.40;49.40;;;;;;4953452;29;20023;-78